Time;durP1;ratioP1;P1;durP2;ratioP2;P2;SDS_P1;SDS_P2;PMS_P1;PMS_P2;Temp;Humidity;BMP_temperature;BMP_pressure;BME280_temperature;BME280_humidity;BME280_pressure;Samples;Min_cycle;Max_cycle;Signal;HPM_P1;HPM_P2
2022/01/29 00:00:36;;;;;;;21.13;8.50;;;2.70;99.70;;;;;;5078856;22;20483;-61
2022/01/29 00:03:04;;;;;;;18.93;8.47;;;2.70;99.70;;;;;;5072634;28;20453;-62
2022/01/29 00:05:31;;;;;;;25.30;9.20;;;2.70;99.70;;;;;;5072388;28;20483;-61
2022/01/29 00:07:57;;;;;;;18.53;7.80;;;2.80;99.70;;;;;;5072908;28;20474;-62
2022/01/29 00:10:24;;;;;;;21.63;7.90;;;2.80;99.70;;;;;;5073244;28;20474;-61
2022/01/29 00:12:51;;;;;;;16.27;7.93;;;2.80;99.70;;;;;;5073261;28;20446;-61
2022/01/29 00:15:20;;;;;;;18.93;8.97;;;2.80;99.70;;;;;;5072727;28;20450;-61
2022/01/29 00:17:47;;;;;;;20.30;8.33;;;2.70;99.70;;;;;;5072828;28;20447;-61
2022/01/29 00:20:13;;;;;;;21.80;8.93;;;2.70;99.70;;;;;;5073171;28;20796;-62
2022/01/29 00:22:41;;;;;;;19.43;8.30;;;2.70;99.70;;;;;;5073046;28;20450;-63
2022/01/29 00:25:09;;;;;;;21.97;8.83;;;2.70;99.70;;;;;;5072922;28;20506;-62
2022/01/29 00:27:36;;;;;;;23.30;8.93;;;2.90;99.70;;;;;;5072861;28;20446;-62
2022/01/29 00:30:07;;;;;;;18.10;8.47;;;2.80;99.70;;;;;;5072403;28;20505;-62
2022/01/29 00:32:35;;;;;;;21.60;9.47;;;2.60;99.70;;;;;;5073080;28;20534;-62
2022/01/29 00:35:03;;;;;;;27.10;8.97;;;2.60;99.70;;;;;;5072920;28;20821;-63
2022/01/29 00:37:30;;;;;;;22.73;8.77;;;2.70;99.70;;;;;;5069224;28;21034;-61
2022/01/29 00:39:56;;;;;;;22.97;8.83;;;2.70;99.70;;;;;;5052280;28;20460;-62
2022/01/29 00:42:23;;;;;;;25.97;9.23;;;2.60;99.70;;;;;;5052691;28;20486;-61
2022/01/29 00:44:50;;;;;;;20.20;8.53;;;2.60;99.70;;;;;;5052539;28;20486;-62
2022/01/29 00:47:17;;;;;;;19.63;8.63;;;2.50;99.70;;;;;;5052656;28;20826;-61
2022/01/29 00:49:45;;;;;;;18.70;8.07;;;2.50;99.70;;;;;;5052127;28;20459;-62
2022/01/29 00:52:13;;;;;;;20.73;8.67;;;2.60;99.70;;;;;;5052437;28;20444;-62
2022/01/29 00:54:39;;;;;;;19.93;8.77;;;2.60;99.70;;;;;;5052540;28;20452;-63
2022/01/29 00:57:06;;;;;;;19.63;8.60;;;2.40;99.70;;;;;;5052220;28;20447;-62
2022/01/29 00:59:34;;;;;;;21.80;8.40;;;2.60;99.70;;;;;;5052010;28;20471;-63
2022/01/29 01:02:00;;;;;;;16.77;7.90;;;2.60;99.70;;;;;;5052070;28;20458;-62
2022/01/29 01:04:27;;;;;;;20.10;8.33;;;2.70;99.70;;;;;;5051880;28;21000;-63
2022/01/29 01:06:55;;;;;;;21.67;8.33;;;2.50;99.70;;;;;;5051462;28;20448;-61
2022/01/29 01:09:22;;;;;;;21.80;8.27;;;2.40;99.70;;;;;;5051845;28;20498;-63
2022/01/29 01:11:48;;;;;;;19.20;8.07;;;2.40;99.70;;;;;;5052023;28;20825;-61
2022/01/29 01:14:15;;;;;;;17.63;7.97;;;2.40;99.70;;;;;;5047862;28;20443;-63
2022/01/29 01:16:42;;;;;;;20.00;7.97;;;2.50;99.70;;;;;;5047479;28;20455;-62
2022/01/29 01:19:09;;;;;;;20.80;8.37;;;2.60;99.70;;;;;;5049306;28;20873;-57
2022/01/29 01:21:35;;;;;;;17.30;8.17;;;2.40;99.70;;;;;;5049384;28;20444;-62
2022/01/29 01:24:04;;;;;;;16.57;7.20;;;2.30;99.70;;;;;;5051867;28;20447;-62
2022/01/29 01:26:30;;;;;;;20.23;7.30;;;2.20;99.70;;;;;;5051838;28;20927;-62
2022/01/29 01:28:57;;;;;;;18.73;7.57;;;2.20;99.70;;;;;;5051364;28;20868;-63
2022/01/29 01:31:24;;;;;;;18.20;7.77;;;2.20;99.70;;;;;;5051611;28;20464;-62
2022/01/29 01:33:51;;;;;;;17.10;7.50;;;2.40;99.70;;;;;;5051684;28;20448;-62
2022/01/29 01:36:21;;;;;;;18.30;8.00;;;2.30;99.70;;;;;;5051724;28;20501;-62
2022/01/29 01:38:52;;;;;;;17.43;7.73;;;2.40;99.70;;;;;;5051183;28;20462;-62
2022/01/29 01:41:24;;;;;;;18.03;7.80;;;2.30;99.70;;;;;;5051598;28;20550;-62
2022/01/29 01:43:52;;;;;;;19.87;7.93;;;2.40;99.70;;;;;;5051589;28;20454;-59
2022/01/29 01:46:18;;;;;;;21.30;8.23;;;2.40;99.70;;;;;;5051458;28;20506;-58
2022/01/29 01:48:45;;;;;;;23.00;8.17;;;2.50;99.70;;;;;;5050994;28;20440;-60
2022/01/29 01:51:14;;;;;;;20.27;7.03;;;2.40;99.70;;;;;;5051333;28;20467;-63
2022/01/29 01:53:40;;;;;;;16.27;7.20;;;2.40;99.70;;;;;;5051306;28;20494;-62
2022/01/29 01:56:07;;;;;;;20.33;7.23;;;2.50;99.70;;;;;;5051514;28;20446;-62
2022/01/29 01:58:35;;;;;;;17.97;7.50;;;2.70;99.70;;;;;;5050949;28;21172;-61
2022/01/29 02:01:02;;;;;;;17.13;6.90;;;2.70;99.70;;;;;;5051067;28;20502;-62
2022/01/29 02:03:28;;;;;;;15.87;7.17;;;2.60;99.70;;;;;;5051439;28;20448;-61
2022/01/29 02:05:56;;;;;;;14.47;6.50;;;2.60;99.70;;;;;;5050454;28;21020;-62
2022/01/29 02:08:23;;;;;;;15.40;6.13;;;2.50;99.70;;;;;;5050752;28;20502;-62
2022/01/29 02:10:50;;;;;;;10.63;5.37;;;2.60;99.70;;;;;;5051120;28;20468;-63
2022/01/29 02:13:17;;;;;;;15.40;6.00;;;2.80;99.70;;;;;;5050838;28;20949;-62
2022/01/29 02:15:47;;;;;;;10.03;5.50;;;2.90;99.70;;;;;;5050521;28;20446;-61
2022/01/29 02:18:15;;;;;;;12.60;5.83;;;2.70;99.70;;;;;;5050886;28;20538;-62
2022/01/29 02:20:45;;;;;;;12.63;5.83;;;2.60;99.70;;;;;;5050983;28;20558;-62
2022/01/29 02:23:13;;;;;;;12.40;5.60;;;2.60;99.70;;;;;;5051196;28;20471;-60
2022/01/29 02:25:41;;;;;;;13.17;5.80;;;2.70;99.70;;;;;;5051082;28;20479;-59
2022/01/29 02:28:11;;;;;;;12.63;6.00;;;2.60;99.70;;;;;;5050526;28;20455;-60
2022/01/29 02:30:39;;;;;;;12.30;5.50;;;2.60;99.70;;;;;;5050919;28;20475;-58
2022/01/29 02:33:10;;;;;;;13.90;6.37;;;2.40;99.70;;;;;;5050971;28;20447;-61
2022/01/29 02:35:39;;;;;;;12.27;5.73;;;2.50;99.70;;;;;;5051045;28;20444;-61
2022/01/29 02:38:06;;;;;;;12.40;6.27;;;2.40;99.70;;;;;;5050635;28;20447;-58
2022/01/29 02:40:38;;;;;;;14.40;6.17;;;2.40;99.70;;;;;;5050801;28;20498;-61
2022/01/29 02:43:13;;;;;;;12.20;6.00;;;2.40;99.70;;;;;;5050966;28;20444;-61
2022/01/29 02:45:41;;;;;;;16.47;6.30;;;2.40;99.70;;;;;;5050868;28;20478;-60
2022/01/29 02:48:08;;;;;;;15.23;5.80;;;2.40;99.70;;;;;;5050502;28;20455;-60
2022/01/29 02:50:35;;;;;;;14.77;6.40;;;2.30;99.70;;;;;;5050799;28;20467;-60
2022/01/29 02:53:01;;;;;;;14.30;6.33;;;2.20;99.70;;;;;;5050707;28;20866;-58
2022/01/29 02:55:29;;;;;;;12.57;5.50;;;2.20;99.70;;;;;;5050897;28;20466;-58
2022/01/29 02:57:57;;;;;;;13.37;6.30;;;2.30;99.70;;;;;;5050441;28;20452;-56
2022/01/29 03:00:24;;;;;;;12.07;6.27;;;2.20;99.70;;;;;;5050287;28;20476;-62
2022/01/29 03:02:51;;;;;;;12.13;5.67;;;2.20;99.70;;;;;;5050899;28;20451;-60
2022/01/29 03:05:18;;;;;;;13.90;6.50;;;2.20;99.70;;;;;;5050193;28;20541;-62
2022/01/29 03:07:45;;;;;;;16.53;6.70;;;2.20;99.70;;;;;;5050540;28;20447;-57
2022/01/29 03:10:12;;;;;;;11.80;5.80;;;2.20;99.70;;;;;;5050303;28;20463;-59
2022/01/29 03:12:40;;;;;;;16.20;6.83;;;2.20;99.70;;;;;;5050677;28;20451;-59
2022/01/29 03:15:09;;;;;;;20.47;6.80;;;2.20;99.70;;;;;;5050129;28;20440;-59
2022/01/29 03:17:36;;;;;;;16.27;6.80;;;2.20;99.70;;;;;;5050654;28;20507;-59
2022/01/29 03:20:04;;;;;;;13.80;6.30;;;2.30;99.70;;;;;;5049991;28;21051;-60
2022/01/29 03:22:31;;;;;;;13.40;5.87;;;2.30;99.70;;;;;;5050688;28;20446;-61
2022/01/29 03:24:57;;;;;;;11.00;5.70;;;2.40;99.70;;;;;;5050382;28;20483;-59
2022/01/29 03:27:24;;;;;;;15.33;6.30;;;2.40;99.70;;;;;;5053712;28;20943;-59
2022/01/29 03:29:51;;;;;;;12.37;5.70;;;2.50;99.70;;;;;;5053652;28;20463;-56
2022/01/29 03:32:19;;;;;;;12.27;5.63;;;2.40;99.70;;;;;;5054053;28;20581;-57
2022/01/29 03:34:45;;;;;;;15.00;5.97;;;2.40;99.70;;;;;;5053871;28;20440;-61
2022/01/29 03:37:12;;;;;;;13.60;5.70;;;2.50;99.70;;;;;;5054085;28;20443;-61
2022/01/29 03:39:42;;;;;;;13.67;5.87;;;2.40;99.70;;;;;;5053389;28;20467;-62
2022/01/29 03:42:10;;;;;;;13.97;5.60;;;2.50;99.70;;;;;;5053820;28;20450;-61
2022/01/29 03:44:37;;;;;;;11.07;5.50;;;2.50;99.70;;;;;;5053775;28;20483;-63
2022/01/29 03:47:05;;;;;;;13.20;5.53;;;2.40;99.70;;;;;;5053791;28;20475;-62
2022/01/29 03:49:33;;;;;;;11.93;5.80;;;2.50;99.70;;;;;;5053266;28;20845;-61
2022/01/29 03:52:00;;;;;;;11.20;5.40;;;2.40;99.70;;;;;;5053697;28;20448;-61
2022/01/29 03:54:27;;;;;;;16.27;5.50;;;2.40;99.70;;;;;;5053507;28;20436;-61
2022/01/29 03:56:53;;;;;;;13.80;5.70;;;2.50;99.70;;;;;;5053629;28;20505;-62
2022/01/29 03:59:20;;;;;;;11.53;4.80;;;2.60;99.70;;;;;;5052949;28;20443;-59
2022/01/29 04:01:47;;;;;;;9.47;4.90;;;2.60;99.70;;;;;;5053419;28;20462;-59
2022/01/29 04:04:13;;;;;;;10.73;4.87;;;2.60;99.70;;;;;;5053380;28;20448;-57
2022/01/29 04:06:41;;;;;;;12.47;4.90;;;2.60;99.70;;;;;;5052569;28;20495;-59
2022/01/29 04:09:11;;;;;;;10.50;5.10;;;2.70;99.70;;;;;;5052948;28;20943;-59
2022/01/29 04:11:38;;;;;;;9.67;4.90;;;2.70;99.70;;;;;;5053268;28;20930;-59
2022/01/29 04:14:13;;;;;;;9.50;5.30;;;2.70;99.70;;;;;;5052842;28;20455;-59
2022/01/29 04:16:39;;;;;;;12.40;4.90;;;2.80;99.70;;;;;;5053223;28;20498;-58
2022/01/29 04:19:06;;;;;;;8.50;4.73;;;2.70;99.70;;;;;;5052656;28;20462;-54
2022/01/29 04:21:33;;;;;;;11.80;5.53;;;2.80;99.70;;;;;;5052980;28;20444;-56
2022/01/29 04:24:01;;;;;;;9.50;4.70;;;2.70;99.70;;;;;;5053000;28;20446;-59
2022/01/29 04:26:33;;;;;;;10.07;4.73;;;2.80;99.70;;;;;;5052901;28;20510;-59
2022/01/29 04:29:00;;;;;;;9.77;5.10;;;2.70;99.70;;;;;;5052763;28;20458;-58
2022/01/29 04:31:36;;;;;;;8.10;4.77;;;2.80;99.70;;;;;;5052930;28;20826;-59
2022/01/29 04:34:03;;;;;;;10.23;4.87;;;2.80;99.70;;;;;;5053240;28;20448;-58
2022/01/29 04:36:30;;;;;;;10.87;4.90;;;2.80;99.70;;;;;;5052839;28;20439;-59
2022/01/29 04:38:56;;;;;;;10.03;4.73;;;2.80;99.70;;;;;;5051727;28;20807;-60
2022/01/29 04:41:24;;;;;;;11.83;5.23;;;2.80;99.70;;;;;;5052482;28;20463;-61
2022/01/29 04:43:51;;;;;;;9.93;4.73;;;3.00;99.70;;;;;;5052730;28;20448;-60
2022/01/29 04:46:18;;;;;;;9.27;4.70;;;2.90;99.70;;;;;;5052539;28;20897;-62
2022/01/29 04:48:44;;;;;;;9.37;5.20;;;3.00;99.70;;;;;;5052184;28;20451;-59
2022/01/29 04:51:11;;;;;;;10.77;4.80;;;3.10;99.70;;;;;;5052466;28;20467;-62
2022/01/29 04:53:40;;;;;;;9.90;4.50;;;3.10;99.70;;;;;;5052454;28;20463;-61
2022/01/29 04:56:07;;;;;;;10.17;4.50;;;3.00;99.70;;;;;;5052416;28;20440;-64
2022/01/29 04:58:35;;;;;;;9.17;4.80;;;3.00;99.70;;;;;;5052097;28;20455;-60
2022/01/29 05:01:02;;;;;;;9.50;4.67;;;3.00;99.70;;;;;;5052107;28;20875;-59
2022/01/29 05:03:29;;;;;;;8.73;4.50;;;3.10;99.70;;;;;;5052305;28;20455;-60
2022/01/29 05:05:56;;;;;;;8.87;4.67;;;3.10;99.70;;;;;;5051746;28;20486;-56
2022/01/29 05:08:23;;;;;;;8.40;4.33;;;3.20;99.70;;;;;;5051924;28;20828;-58
2022/01/29 05:10:50;;;;;;;7.47;4.30;;;3.30;99.70;;;;;;5052062;28;20506;-61
2022/01/29 05:13:21;;;;;;;8.53;4.50;;;3.20;99.70;;;;;;5051960;28;20447;-60
2022/01/29 05:16:03;;;;;;;8.43;4.20;;;3.20;99.70;;;;;;5052215;28;20690;-60
2022/01/29 05:26:54;;;;;;;18.57;5.77;;;3.20;99.70;;;;;;5051881;28;20549;-61
2022/01/29 05:29:21;;;;;;;30.77;8.10;;;3.10;99.70;;;;;;5051476;28;20857;-62
2022/01/29 05:31:51;;;;;;;12.93;6.20;;;3.00;99.70;;;;;;5051763;28;20456;-60
2022/01/29 05:34:18;;;;;;;12.43;5.90;;;2.90;99.70;;;;;;5051846;28;20967;-61
2022/01/29 05:36:45;;;;;;;10.33;5.03;;;2.90;99.70;;;;;;5051716;28;20523;-63
2022/01/29 05:39:12;;;;;;;13.00;5.20;;;2.90;99.70;;;;;;5051247;28;20440;-61
2022/01/29 05:41:39;;;;;;;11.23;4.83;;;3.20;99.70;;;;;;5051419;28;20448;-60
2022/01/29 05:44:07;;;;;;;12.53;5.73;;;3.10;99.70;;;;;;5051594;28;20448;-62
2022/01/29 05:46:34;;;;;;;13.10;4.93;;;3.10;99.70;;;;;;5051449;28;20486;-61
2022/01/29 05:49:02;;;;;;;11.20;4.93;;;3.10;99.70;;;;;;5051176;28;20439;-59
2022/01/29 05:51:30;;;;;;;13.07;5.70;;;3.20;99.70;;;;;;5051485;28;20470;-61
2022/01/29 05:53:57;;;;;;;14.07;5.60;;;3.20;99.70;;;;;;5051440;28;20483;-62
2022/01/29 05:56:24;;;;;;;16.90;7.40;;;3.20;99.70;;;;;;5051309;28;20472;-60
2022/01/29 05:58:50;;;;;;;17.27;7.83;;;3.20;99.70;;;;;;5051061;28;20447;-62
2022/01/29 06:01:17;;;;;;;19.47;7.53;;;3.10;99.70;;;;;;5086841;22;20483;-65
2022/01/29 06:03:44;;;;;;;19.03;8.70;;;3.20;99.70;;;;;;5068966;28;20870;-65
2022/01/29 06:06:12;;;;;;;17.27;7.17;;;3.00;99.70;;;;;;5068932;28;20483;-64
2022/01/29 06:08:39;;;;;;;17.10;7.57;;;3.30;99.70;;;;;;5071068;28;20464;-64
2022/01/29 06:11:05;;;;;;;22.07;7.90;;;3.20;99.70;;;;;;5070823;28;20496;-65
2022/01/29 06:13:32;;;;;;;23.50;9.00;;;3.10;99.70;;;;;;5070959;28;20442;-65
2022/01/29 06:16:01;;;;;;;20.20;8.10;;;3.10;99.70;;;;;;5071205;28;20446;-64
2022/01/29 06:18:28;;;;;;;23.27;9.50;;;3.10;99.70;;;;;;5070980;28;20589;-65
2022/01/29 06:20:57;;;;;;;21.50;8.87;;;3.00;99.70;;;;;;5071236;28;20446;-65
2022/01/29 06:23:31;;;;;;;22.80;9.63;;;2.80;99.70;;;;;;5071130;28;21011;-65
2022/01/29 06:25:58;;;;;;;20.60;9.50;;;2.70;99.70;;;;;;5071377;28;20478;-65
2022/01/29 06:28:25;;;;;;;22.37;8.70;;;2.70;99.70;;;;;;5070685;28;20446;-64
2022/01/29 06:30:53;;;;;;;22.37;8.73;;;2.80;99.70;;;;;;5070985;28;20461;-63
2022/01/29 06:33:19;;;;;;;25.63;9.73;;;2.80;99.70;;;;;;5071220;28;20458;-65
2022/01/29 06:35:47;;;;;;;25.50;10.20;;;2.70;99.70;;;;;;5071033;28;20447;-63
2022/01/29 06:38:15;;;;;;;24.50;9.70;;;2.80;99.70;;;;;;5070632;28;20952;-65
2022/01/29 06:40:44;;;;;;;22.37;9.43;;;3.00;99.70;;;;;;5070937;28;20450;-64
2022/01/29 06:43:11;;;;;;;21.50;8.77;;;3.00;99.70;;;;;;5070943;28;20824;-65
2022/01/29 06:45:39;;;;;;;23.43;9.80;;;3.10;99.70;;;;;;5070981;28;20972;-65
2022/01/29 06:48:07;;;;;;;25.27;10.70;;;3.10;99.70;;;;;;5070577;28;20445;-65
2022/01/29 06:50:35;;;;;;;25.90;10.27;;;3.00;99.70;;;;;;5071158;28;20953;-66
2022/01/29 06:53:02;;;;;;;20.60;9.23;;;3.00;99.70;;;;;;5071220;28;20466;-63
2022/01/29 06:55:28;;;;;;;27.23;10.83;;;2.90;99.70;;;;;;5070853;28;20442;-64
2022/01/29 06:57:57;;;;;;;29.30;11.23;;;3.10;99.70;;;;;;5070552;28;20439;-64
2022/01/29 07:00:24;;;;;;;23.77;10.40;;;3.20;99.70;;;;;;5071153;28;20454;-64
2022/01/29 07:02:51;;;;;;;25.63;11.00;;;3.00;99.70;;;;;;5074802;28;20532;-63
2022/01/29 07:05:17;;;;;;;24.17;10.30;;;2.80;99.70;;;;;;5074347;28;20447;-64
2022/01/29 07:07:44;;;;;;;26.53;10.70;;;2.80;99.70;;;;;;5074235;28;20493;-65
2022/01/29 07:10:11;;;;;;;28.03;11.63;;;2.60;99.70;;;;;;5074569;28;20443;-65
2022/01/29 07:12:38;;;;;;;28.03;11.60;;;2.60;99.70;;;;;;5074579;28;20501;-64
2022/01/29 07:15:08;;;;;;;28.57;12.03;;;2.50;99.70;;;;;;5074138;28;20449;-65
2022/01/29 07:17:34;;;;;;;28.77;12.57;;;2.60;99.70;;;;;;5074697;28;20799;-65
2022/01/29 07:20:01;;;;;;;30.00;11.90;;;2.80;99.70;;;;;;5074310;28;20973;-65
2022/01/29 07:22:28;;;;;;;26.47;10.60;;;2.90;99.70;;;;;;5073452;28;20837;-65
2022/01/29 07:24:55;;;;;;;25.70;10.40;;;3.00;99.70;;;;;;5074345;28;20442;-64
2022/01/29 07:27:21;;;;;;;27.43;11.60;;;3.00;99.70;;;;;;5074185;28;20478;-64
2022/01/29 07:29:48;;;;;;;28.17;10.90;;;3.00;99.70;;;;;;5070847;28;20447;-65
2022/01/29 07:32:16;;;;;;;25.23;11.60;;;3.10;99.70;;;;;;5068364;28;20470;-65
2022/01/29 07:34:43;;;;;;;29.90;11.67;;;3.00;99.70;;;;;;5072821;28;20459;-64
2022/01/29 07:37:09;;;;;;;29.10;11.93;;;3.00;99.70;;;;;;5067568;28;20461;-65
2022/01/29 07:39:37;;;;;;;26.03;11.20;;;3.00;99.70;;;;;;5072414;28;20533;-65
2022/01/29 07:42:04;;;;;;;21.27;9.83;;;2.90;99.70;;;;;;5066788;28;20879;-64
2022/01/29 07:44:31;;;;;;;20.23;9.47;;;3.00;99.70;;;;;;5073638;28;20447;-64
2022/01/29 07:46:57;;;;;;;24.60;9.63;;;3.00;99.70;;;;;;5059617;28;20471;-64
2022/01/29 07:49:25;;;;;;;17.67;7.30;;;2.90;99.70;;;;;;5053439;28;20452;-64
2022/01/29 07:51:52;;;;;;;17.23;7.10;;;2.90;99.70;;;;;;5053388;28;20475;-64
2022/01/29 07:54:19;;;;;;;15.03;6.20;;;3.00;99.70;;;;;;5053630;28;20439;-64
2022/01/29 07:56:46;;;;;;;12.67;6.10;;;3.10;99.70;;;;;;5053702;28;20443;-64
2022/01/29 07:59:13;;;;;;;13.57;6.17;;;3.10;99.70;;;;;;5053057;28;20936;-63
2022/01/29 08:01:39;;;;;;;10.80;5.73;;;3.10;99.70;;;;;;5053190;28;20800;-64
2022/01/29 08:04:06;;;;;;;9.17;5.10;;;3.30;99.70;;;;;;5053418;28;20439;-63
2022/01/29 08:06:34;;;;;;;15.37;5.30;;;3.30;99.70;;;;;;5052880;28;20487;-65
2022/01/29 08:09:01;;;;;;;10.43;4.50;;;3.30;99.70;;;;;;5053059;28;20448;-64
2022/01/29 08:11:28;;;;;;;9.77;4.60;;;3.30;99.70;;;;;;5052556;28;20590;-64
2022/01/29 08:13:55;;;;;;;9.40;4.70;;;3.20;99.70;;;;;;5052029;28;20440;-64
2022/01/29 08:16:21;;;;;;;9.20;4.23;;;3.40;99.70;;;;;;5053280;28;20443;-64
2022/01/29 08:18:48;;;;;;;10.03;4.60;;;3.40;99.70;;;;;;5052431;28;21016;-64
2022/01/29 08:21:16;;;;;;;8.70;4.60;;;3.60;99.70;;;;;;5052540;28;20570;-64
2022/01/29 08:23:45;;;;;;;8.73;4.50;;;3.60;99.70;;;;;;5052704;28;20454;-63
2022/01/29 08:26:12;;;;;;;10.67;4.40;;;3.60;99.70;;;;;;5053306;28;20456;-64
2022/01/29 08:28:39;;;;;;;7.80;4.03;;;3.70;99.70;;;;;;5052236;28;21060;-64
2022/01/29 08:31:06;;;;;;;8.37;4.10;;;3.70;99.70;;;;;;5070042;28;20463;-64
2022/01/29 08:33:33;;;;;;;8.70;4.30;;;3.80;99.70;;;;;;5072636;28;20454;-64
2022/01/29 08:36:01;;;;;;;8.07;3.90;;;3.90;99.70;;;;;;5072810;28;20526;-65
2022/01/29 08:38:28;;;;;;;13.07;4.33;;;3.90;99.70;;;;;;5072154;28;20442;-65
2022/01/29 08:40:58;;;;;;;9.10;4.30;;;3.90;99.70;;;;;;5072471;28;20450;-64
2022/01/29 08:43:24;;;;;;;10.03;4.20;;;3.90;99.70;;;;;;5072494;28;20451;-64
2022/01/29 08:45:52;;;;;;;11.77;4.97;;;4.00;99.70;;;;;;5072748;28;20450;-63
2022/01/29 08:48:21;;;;;;;9.20;4.33;;;4.10;99.70;;;;;;5072047;28;20474;-65
2022/01/29 08:50:47;;;;;;;9.83;4.43;;;4.10;99.70;;;;;;5072234;28;20478;-64
2022/01/29 08:53:16;;;;;;;9.80;4.40;;;4.10;99.70;;;;;;5072430;28;20961;-64
2022/01/29 08:55:43;;;;;;;11.03;5.10;;;4.10;99.70;;;;;;5071163;28;20539;-64
2022/01/29 08:58:11;;;;;;;9.23;4.60;;;4.20;99.70;;;;;;5070102;28;20443;-65
2022/01/29 09:00:40;;;;;;;9.80;4.27;;;4.30;99.70;;;;;;5071683;28;20455;-64
2022/01/29 09:03:07;;;;;;;9.40;4.53;;;4.40;99.70;;;;;;5071822;28;20478;-64
2022/01/29 09:05:34;;;;;;;12.33;4.80;;;4.50;99.70;;;;;;5067397;28;20455;-63
2022/01/29 09:08:02;;;;;;;10.30;4.57;;;4.40;99.70;;;;;;5071524;28;20535;-64
2022/01/29 09:10:30;;;;;;;11.13;5.10;;;4.50;99.70;;;;;;5071753;28;20442;-65
2022/01/29 09:12:57;;;;;;;12.00;4.90;;;4.60;99.70;;;;;;5072102;28;20470;-64
2022/01/29 09:15:25;;;;;;;11.43;4.90;;;4.60;99.70;;;;;;5071429;28;20459;-64
2022/01/29 09:17:52;;;;;;;11.23;4.60;;;4.70;99.70;;;;;;5071640;28;20544;-65
2022/01/29 09:20:19;;;;;;;10.50;4.77;;;4.80;99.70;;;;;;5071754;28;20938;-65
2022/01/29 09:22:46;;;;;;;11.10;5.30;;;4.80;99.70;;;;;;5071776;28;20471;-61
2022/01/29 09:25:13;;;;;;;10.17;4.73;;;4.80;99.70;;;;;;5071545;28;20451;-64
2022/01/29 09:27:40;;;;;;;10.57;4.70;;;4.80;99.70;;;;;;5071148;28;20482;-62
2022/01/29 09:30:09;;;;;;;10.07;5.10;;;4.90;99.70;;;;;;5070383;28;20443;-64
2022/01/29 09:32:37;;;;;;;11.20;5.07;;;5.10;99.70;;;;;;5071777;28;20486;-64
2022/01/29 09:35:05;;;;;;;11.07;5.10;;;5.10;99.70;;;;;;5069479;28;20460;-64
2022/01/29 09:37:32;;;;;;;9.50;4.90;;;4.90;99.70;;;;;;5062999;28;20950;-65
2022/01/29 09:39:59;;;;;;;11.23;5.33;;;4.90;99.70;;;;;;5065107;28;20462;-63
2022/01/29 09:42:26;;;;;;;11.00;5.10;;;4.90;99.70;;;;;;5069168;28;20482;-65
2022/01/29 09:44:53;;;;;;;10.83;4.80;;;4.90;99.70;;;;;;5071276;28;20508;-63
2022/01/29 09:47:23;;;;;;;11.63;5.50;;;4.90;99.70;;;;;;5071285;28;20857;-66
2022/01/29 09:49:52;;;;;;;10.10;4.43;;;4.90;99.70;;;;;;5070715;28;20894;-63
2022/01/29 09:52:18;;;;;;;11.70;5.10;;;5.10;99.70;;;;;;5064957;28;20513;-64
2022/01/29 09:54:48;;;;;;;10.10;4.70;;;5.30;99.70;;;;;;5067713;28;20447;-64
2022/01/29 09:57:15;;;;;;;14.20;5.43;;;5.60;99.70;;;;;;5064212;28;20493;-65
2022/01/29 09:59:42;;;;;;;10.30;4.40;;;5.80;99.70;;;;;;5065872;28;20482;-64
2022/01/29 10:02:15;;;;;;;9.33;4.10;;;5.80;99.70;;;;;;5062133;28;21304;-65
2022/01/29 10:04:51;;;;;;;8.60;4.60;;;5.80;99.70;;;;;;5068092;28;20530;-64
2022/01/29 10:07:19;;;;;;;9.97;4.90;;;5.80;99.70;;;;;;5069550;28;20488;-65
2022/01/29 10:09:46;;;;;;;11.03;4.70;;;6.00;99.70;;;;;;5070508;28;20461;-64
2022/01/29 10:12:26;;;;;;;10.70;5.13;;;6.20;99.70;;;;;;5070529;28;20483;-64
2022/01/29 10:14:56;;;;;;;10.43;4.87;;;6.40;99.70;;;;;;5060105;28;20814;-65
2022/01/29 10:17:43;;;;;;;11.17;4.67;;;6.50;99.70;;;;;;5069375;28;20454;-64
2022/01/29 10:20:14;;;;;;;12.90;5.33;;;6.40;99.70;;;;;;5070858;28;20655;-65
2022/01/29 10:22:42;;;;;;;10.80;4.70;;;6.50;99.70;;;;;;5071252;28;20474;-64
2022/01/29 10:25:13;;;;;;;12.43;5.00;;;6.60;99.70;;;;;;5070944;28;20565;-65
2022/01/29 10:27:40;;;;;;;10.73;5.53;;;6.40;99.70;;;;;;5070070;28;20484;-59
2022/01/29 10:30:11;;;;;;;13.50;5.87;;;6.60;99.70;;;;;;5069676;28;20965;-65
2022/01/29 10:32:37;;;;;;;10.43;4.80;;;6.60;99.70;;;;;;5069841;28;20518;-64
2022/01/29 10:35:05;;;;;;;12.10;5.13;;;6.70;99.70;;;;;;5071066;28;20435;-64
2022/01/29 10:37:33;;;;;;;12.20;5.37;;;6.60;99.70;;;;;;5069390;28;20836;-65
2022/01/29 10:40:01;;;;;;;12.43;5.33;;;6.60;99.70;;;;;;5070152;28;20507;-65
2022/01/29 10:42:32;;;;;;;12.60;5.47;;;6.50;99.70;;;;;;5075188;28;20458;-65
2022/01/29 10:45:02;;;;;;;14.10;5.80;;;6.40;99.70;;;;;;5075546;28;20451;-65
2022/01/29 10:47:30;;;;;;;11.47;5.53;;;6.30;99.70;;;;;;5065919;28;20514;-64
2022/01/29 10:50:01;;;;;;;11.53;5.40;;;6.30;99.70;;;;;;5068405;28;20455;-65
2022/01/29 10:52:30;;;;;;;12.10;5.30;;;6.50;99.70;;;;;;5069391;28;20886;-64
2022/01/29 10:55:00;;;;;;;11.43;5.67;;;6.50;99.70;;;;;;5073055;28;20451;-64
2022/01/29 10:57:35;;;;;;;10.93;5.53;;;6.50;99.70;;;;;;5068479;28;20878;-65
2022/01/29 11:00:04;;;;;;;11.70;5.13;;;6.50;99.70;;;;;;5065835;28;20458;-64
2022/01/29 11:02:31;;;;;;;10.67;4.90;;;6.60;99.70;;;;;;5074990;28;20510;-65
2022/01/29 11:05:01;;;;;;;11.80;5.30;;;6.70;99.70;;;;;;5075789;28;20533;-65
2022/01/29 11:07:29;;;;;;;11.17;4.80;;;6.80;99.70;;;;;;5075086;28;20856;-65
2022/01/29 11:09:56;;;;;;;11.43;5.40;;;6.60;99.70;;;;;;5074187;28;20443;-66
2022/01/29 11:12:26;;;;;;;10.70;5.13;;;6.70;99.70;;;;;;5074897;28;20816;-64
2022/01/29 11:14:54;;;;;;;13.87;5.80;;;6.60;99.70;;;;;;5074450;28;20450;-64
2022/01/29 11:17:23;;;;;;;13.30;5.60;;;6.70;99.70;;;;;;5074852;28;20447;-63
2022/01/29 11:19:50;;;;;;;10.70;4.90;;;6.60;99.70;;;;;;5072360;28;20442;-65
2022/01/29 11:22:22;;;;;;;13.03;4.53;;;6.50;99.70;;;;;;5069172;28;20483;-63
2022/01/29 11:24:50;;;;;;;10.30;5.77;;;6.60;99.70;;;;;;5068690;28;20452;-64
2022/01/29 11:27:27;;;;;;;9.63;4.37;;;6.60;99.70;;;;;;5072923;28;20474;-64
2022/01/29 11:29:58;;;;;;;8.83;4.70;;;6.70;99.70;;;;;;5070399;28;20512;-65
2022/01/29 11:32:33;;;;;;;9.70;4.17;;;6.60;99.70;;;;;;5070960;28;20993;-63
2022/01/29 11:35:01;;;;;;;8.63;4.43;;;6.50;99.70;;;;;;5073223;28;20828;-65
2022/01/29 11:37:40;;;;;;;9.40;4.47;;;6.70;99.70;;;;;;5071335;28;20961;-63
2022/01/29 11:40:15;;;;;;;9.10;4.03;;;6.80;99.70;;;;;;5064514;28;20463;-64
2022/01/29 11:43:10;;;;;;;8.80;4.10;;;6.60;99.70;;;;;;5068327;28;20505;-64
2022/01/29 11:45:46;;;;;;;9.63;3.57;;;6.70;99.70;;;;;;5068711;28;20566;-62
2022/01/29 11:48:55;;;;;;;7.53;3.50;;;6.80;99.70;;;;;;5071582;28;20474;-64
2022/01/29 11:51:52;;;;;;;8.80;3.93;;;6.80;99.70;;;;;;5072443;28;20473;-68
2022/01/29 11:54:24;;;;;;;7.63;3.60;;;6.90;99.70;;;;;;5072806;28;20443;-68
2022/01/29 11:57:07;;;;;;;7.23;3.40;;;7.00;99.70;;;;;;5072755;28;20921;-68
2022/01/29 11:59:35;;;;;;;6.47;3.30;;;7.00;99.70;;;;;;5066711;28;20459;-68
2022/01/29 12:02:28;;;;;;;6.33;2.93;;;7.00;99.70;;;;;;5068176;28;20501;-69
2022/01/29 12:05:05;;;;;;;7.67;3.60;;;7.00;99.70;;;;;;5069289;28;20463;-68
2022/01/29 12:07:35;;;;;;;8.43;3.10;;;7.00;99.70;;;;;;5072217;28;20501;-69
2022/01/29 12:10:06;;;;;;;5.80;2.90;;;7.10;99.70;;;;;;5072332;28;20520;-68
2022/01/29 12:12:34;;;;;;;5.70;2.90;;;7.20;99.70;;;;;;5072450;28;20524;-68
2022/01/29 12:15:34;;;;;;;7.50;3.13;;;7.00;99.70;;;;;;5072193;28;20458;-68
2022/01/29 12:18:05;;;;;;;5.77;2.60;;;7.00;99.70;;;;;;5052680;28;20444;-68
2022/01/29 12:20:31;;;;;;;5.70;2.80;;;7.00;99.70;;;;;;5070009;28;20443;-68
2022/01/29 12:23:02;;;;;;;6.37;2.70;;;6.90;99.70;;;;;;5072846;28;20881;-67
2022/01/29 12:25:30;;;;;;;5.80;3.00;;;6.90;99.70;;;;;;5072119;28;20493;-68
2022/01/29 12:27:58;;;;;;;6.60;3.00;;;7.00;99.70;;;;;;5071667;28;21032;-68
2022/01/29 12:30:27;;;;;;;7.47;2.93;;;7.00;99.70;;;;;;5071258;28;21222;-68
2022/01/29 12:32:59;;;;;;;6.50;3.10;;;6.90;99.70;;;;;;5072165;28;20466;-68
2022/01/29 12:35:35;;;;;;;7.40;3.23;;;6.70;99.70;;;;;;5072523;28;20864;-69
2022/01/29 12:38:02;;;;;;;5.60;2.67;;;6.90;99.70;;;;;;5071183;28;20443;-68
2022/01/29 12:40:36;;;;;;;5.67;3.00;;;6.90;99.70;;;;;;5071922;28;20831;-68
2022/01/29 12:43:10;;;;;;;6.40;3.27;;;6.90;99.70;;;;;;5071782;28;20520;-68
2022/01/29 12:45:38;;;;;;;6.10;2.83;;;6.80;99.70;;;;;;5072655;28;20450;-69
2022/01/29 12:48:09;;;;;;;6.60;2.77;;;6.80;99.70;;;;;;5071632;28;20475;-68
2022/01/29 12:50:39;;;;;;;8.27;3.80;;;6.90;99.70;;;;;;5071805;28;20442;-68
2022/01/29 12:53:08;;;;;;;6.03;2.87;;;6.90;99.70;;;;;;5051602;28;20464;-68
2022/01/29 12:55:35;;;;;;;6.43;2.97;;;6.90;99.70;;;;;;5068615;28;20458;-68
2022/01/29 12:58:02;;;;;;;5.10;2.77;;;6.90;99.70;;;;;;5070153;28;20439;-68
2022/01/29 13:00:29;;;;;;;5.63;2.90;;;6.90;99.70;;;;;;5071311;28;20454;-68
2022/01/29 13:03:05;;;;;;;8.43;3.23;;;7.00;99.70;;;;;;5071617;28;20566;-68